Malmo, Nebraska
Current Conditions -  °F | °C
As of 12:15 PM on Friday 24 Oct 2014 (Local Time) from KAHQ Reporting Station
Clear Clear  
Wind Chill: 69°   Ceiling: Unl
Heat Index: 69°   Visibility: 10mi
Dew Point: 56°   Wind: 6mph
Humidity: 62%   Direction: 250°WSW
Pressure: 29.94"   Gusts: NA
Location:  41.27°N, 96.72°W
Report Text: KAHQ 241715Z AUTO 25005KT 10SM CLR 21/13 A2994 RMK AO2 T02050131
Loading
Personal Weather Stations






























Interactive Weather Map
Tropical Storm Tracking
New forecast layout! Learn more

10-Day Weather Forecast

Advertisements
Track Severe Weather on mobile